Time;durP1;ratioP1;P1;durP2;ratioP2;P2;SDS_P1;SDS_P2;PMS_P1;PMS_P2;Temp;Humidity;BMP_temperature;BMP_pressure;BME280_temperature;BME280_humidity;BME280_pressure;Samples;Min_cycle;Max_cycle;Signal;HPM_P1;HPM_P2
2022/03/05 00:01:16;;;;;;;2.27;2.10;;;0.60;99.90;;;;;;5111271;27;20179;-75
2022/03/05 00:03:42;;;;;;;0.83;0.80;;;0.60;99.90;;;;;;5126456;27;20709;-74
2022/03/05 00:06:07;;;;;;;3.70;2.73;;;0.50;99.90;;;;;;5126746;27;20538;-73
2022/03/05 00:08:33;;;;;;;3.40;3.20;;;0.60;99.90;;;;;;5126194;27;20190;-74
2022/03/05 00:10:59;;;;;;;5.20;0.67;;;0.50;99.90;;;;;;5126617;27;20266;-73
2022/03/05 00:13:24;;;;;;;0.47;0.47;;;0.50;99.90;;;;;;5125017;27;20626;-74
2022/03/05 00:15:51;;;;;;;1.07;1.07;;;0.50;99.90;;;;;;5126221;27;20182;-69
2022/03/05 00:18:17;;;;;;;1.63;1.57;;;0.50;99.90;;;;;;5125440;27;20527;-75
2022/03/05 00:20:44;;;;;;;4.67;3.07;;;0.40;99.90;;;;;;5126634;27;20246;-75
2022/03/05 00:23:10;;;;;;;2.33;2.23;;;0.40;99.90;;;;;;5126215;27;20174;-73
2022/03/05 00:25:37;;;;;;;4.10;2.00;;;0.30;99.90;;;;;;5125885;27;20186;-73
2022/03/05 00:28:03;;;;;;;1.57;1.57;;;0.40;99.90;;;;;;5125121;27;20879;-74
2022/03/05 00:30:28;;;;;;;0.43;0.43;;;0.30;99.90;;;;;;5125842;27;20218;-75
2022/03/05 00:32:54;;;;;;;2.07;1.97;;;0.40;99.90;;;;;;5125675;27;20874;-72
2022/03/05 00:35:19;;;;;;;4.33;2.00;;;0.40;99.90;;;;;;5129683;27;20190;-73
2022/03/05 00:37:45;;;;;;;1.73;1.63;;;0.40;99.90;;;;;;5134602;27;20222;-72
2022/03/05 00:40:12;;;;;;;0.80;0.80;;;0.30;99.90;;;;;;5134347;27;20201;-74
2022/03/05 00:42:37;;;;;;;10.40;6.77;;;0.40;99.90;;;;;;5133827;27;20189;-74
2022/03/05 00:45:05;;;;;;;1.50;1.17;;;0.30;99.90;;;;;;5134288;27;20178;-73
2022/03/05 00:47:32;;;;;;;10.17;1.40;;;0.30;99.90;;;;;;5134303;27;20175;-73
2022/03/05 00:49:58;;;;;;;2.60;1.33;;;0.20;99.90;;;;;;5134137;27;20230;-74
2022/03/05 00:52:23;;;;;;;0.40;0.40;;;0.10;99.90;;;;;;5133959;27;20247;-74
2022/03/05 00:54:49;;;;;;;0.50;0.50;;;0.10;99.90;;;;;;5134227;27;20182;-74
2022/03/05 00:57:15;;;;;;;0.97;0.97;;;0.10;99.90;;;;;;5133963;27;20183;-74
2022/03/05 00:59:40;;;;;;;0.30;0.30;;;0.10;99.90;;;;;;5133807;27;20208;-74
2022/03/05 01:02:06;;;;;;;2.80;2.60;;;0.00;99.90;;;;;;5133922;27;20181;-74
2022/03/05 01:04:32;;;;;;;4.43;4.13;;;0.00;99.90;;;;;;5134181;27;20181;-74
2022/03/05 01:06:57;;;;;;;1.13;1.13;;;-0.10;99.90;;;;;;5133933;27;20182;-74
2022/03/05 01:09:23;;;;;;;0.43;0.43;;;-0.10;99.90;;;;;;5133959;27;20226;-75
2022/03/05 01:11:48;;;;;;;0.87;0.87;;;-0.20;99.90;;;;;;5133096;27;20186;-74
2022/03/05 01:14:14;;;;;;;0.20;0.20;;;-0.10;99.90;;;;;;5133722;27;20202;-74
2022/03/05 01:16:39;;;;;;;0.30;0.30;;;-0.20;99.90;;;;;;5133689;27;20190;-74
2022/03/05 01:19:05;;;;;;;6.57;2.17;;;-0.20;99.90;;;;;;5133762;27;20198;-73
2022/03/05 01:21:31;;;;;;;0.50;0.50;;;-0.20;99.90;;;;;;5133321;27;20209;-74
2022/03/05 01:23:56;;;;;;;1.27;1.27;;;-0.20;99.90;;;;;;5133608;27;20258;-74
2022/03/05 01:26:22;;;;;;;3.83;2.70;;;-0.10;99.90;;;;;;5133747;27;20194;-74
2022/03/05 01:28:47;;;;;;;1.50;1.40;;;-0.10;99.90;;;;;;5133179;27;20182;-73
2022/03/05 01:31:14;;;;;;;3.40;3.10;;;-0.20;99.90;;;;;;5076733;22;20237;-73
2022/03/05 01:33:40;;;;;;;3.67;3.50;;;-0.20;99.90;;;;;;5040115;28;20607;-74
2022/03/05 01:36:06;;;;;;;2.23;2.13;;;-0.20;99.90;;;;;;5034987;28;20185;-72
2022/03/05 01:38:32;;;;;;;1.57;1.57;;;-0.30;99.90;;;;;;5032987;28;20178;-73
2022/03/05 01:40:57;;;;;;;1.87;1.77;;;-0.30;99.90;;;;;;5047264;28;20271;-73
2022/03/05 01:43:23;;;;;;;2.30;2.20;;;-0.30;99.90;;;;;;5052048;28;20177;-72
2022/03/05 01:45:48;;;;;;;7.43;5.30;;;-0.40;99.90;;;;;;5051236;28;20192;-74
2022/03/05 01:48:14;;;;;;;2.30;1.73;;;-0.30;99.90;;;;;;5052550;28;20185;-73
2022/03/05 01:50:40;;;;;;;0.27;0.27;;;-0.30;99.90;;;;;;5052327;28;20211;-74
2022/03/05 01:53:06;;;;;;;26.53;2.10;;;-0.40;99.90;;;;;;5051971;28;20676;-74
2022/03/05 01:55:32;;;;;;;8.17;1.50;;;-0.40;99.90;;;;;;5051708;28;20229;-73
2022/03/05 01:57:57;;;;;;;5.33;2.80;;;-0.40;99.90;;;;;;5052258;28;20200;-72
2022/03/05 02:00:23;;;;;;;1.27;1.27;;;-0.40;99.90;;;;;;5038749;28;20197;-74
2022/03/05 02:02:49;;;;;;;0.43;0.43;;;-0.50;99.90;;;;;;5052297;28;20192;-73
2022/03/05 02:05:15;;;;;;;3.37;2.93;;;-0.50;99.90;;;;;;5052450;28;20185;-74
2022/03/05 02:07:41;;;;;;;2.50;2.30;;;-0.50;99.90;;;;;;5045930;28;20173;-75
2022/03/05 02:10:09;;;;;;;5.53;5.03;;;-0.50;99.90;;;;;;5052006;28;20642;-73
2022/03/05 02:12:36;;;;;;;1.60;1.50;;;-0.50;99.90;;;;;;5051504;28;20181;-73
2022/03/05 02:15:03;;;;;;;2.50;2.30;;;-0.70;99.90;;;;;;5051619;28;20549;-73
2022/03/05 02:17:29;;;;;;;0.40;0.40;;;-0.70;99.90;;;;;;5051800;28;20204;-74
2022/03/05 02:19:55;;;;;;;3.73;3.30;;;-0.80;99.90;;;;;;5051734;28;20251;-73
2022/03/05 02:22:21;;;;;;;1.23;1.23;;;-0.80;99.90;;;;;;5040364;28;20177;-74
2022/03/05 02:25:02;;;;;;;6.10;5.50;;;-0.80;99.90;;;;;;5048530;28;20595;-75
2022/03/05 02:27:28;;;;;;;2.27;2.17;;;-0.90;99.90;;;;;;5051749;28;20652;-76
2022/03/05 02:29:55;;;;;;;4.07;3.70;;;-0.90;99.90;;;;;;5051432;28;20212;-75
2022/03/05 02:32:21;;;;;;;0.40;0.40;;;-1.00;99.90;;;;;;5051296;28;20235;-74
2022/03/05 02:34:47;;;;;;;4.60;2.70;;;-1.10;99.90;;;;;;5051622;28;20185;-74
2022/03/05 02:37:15;;;;;;;4.13;3.80;;;-1.20;99.90;;;;;;5050185;28;20249;-75
2022/03/05 02:39:41;;;;;;;1.60;1.07;;;-1.30;99.90;;;;;;5051126;28;20215;-75
2022/03/05 02:42:07;;;;;;;1.60;1.50;;;-1.40;99.90;;;;;;5051495;28;20653;-76
2022/03/05 02:44:32;;;;;;;0.20;0.20;;;-1.40;99.90;;;;;;5050367;28;20322;-75
2022/03/05 02:46:58;;;;;;;0.67;0.67;;;-1.40;99.90;;;;;;5037693;28;20207;-74
2022/03/05 02:49:25;;;;;;;0.43;0.43;;;-1.40;99.90;;;;;;5052636;28;20181;-75
2022/03/05 02:51:51;;;;;;;3.43;3.13;;;-1.40;99.90;;;;;;5042741;28;20652;-74
2022/03/05 02:54:16;;;;;;;3.20;3.10;;;-1.40;99.90;;;;;;5053877;28;20278;-75
2022/03/05 02:56:42;;;;;;;1.73;1.60;;;-1.40;99.90;;;;;;5053048;28;20192;-74
2022/03/05 02:59:08;;;;;;;4.57;4.37;;;-1.40;99.90;;;;;;5046166;28;20204;-76
2022/03/05 03:01:33;;;;;;;6.97;6.27;;;-1.40;99.90;;;;;;5043921;28;20193;-73
2022/03/05 03:03:59;;;;;;;5.83;2.67;;;-1.40;99.90;;;;;;5051990;28;20994;-74
2022/03/05 03:06:24;;;;;;;1.17;0.53;;;-1.40;99.90;;;;;;5045410;28;20189;-74
2022/03/05 03:08:50;;;;;;;2.87;1.10;;;-1.40;99.90;;;;;;5050297;28;20189;-74
2022/03/05 03:11:16;;;;;;;0.60;0.60;;;-1.40;99.90;;;;;;5051409;28;20238;-73
2022/03/05 03:13:41;;;;;;;0.80;0.80;;;-1.40;99.90;;;;;;5051230;28;20288;-74
2022/03/05 03:16:08;;;;;;;0.97;0.97;;;-1.50;99.90;;;;;;5052374;28;20184;-74
2022/03/05 03:18:34;;;;;;;7.93;6.17;;;-1.50;99.90;;;;;;5049561;28;20716;-74
2022/03/05 03:20:59;;;;;;;4.33;4.13;;;-1.50;99.90;;;;;;5051182;28;20201;-73
2022/03/05 03:23:25;;;;;;;2.20;2.10;;;-1.40;99.90;;;;;;5051018;28;20235;-74
2022/03/05 03:25:50;;;;;;;1.40;1.40;;;-1.50;99.90;;;;;;5050994;28;20269;-74
2022/03/05 03:28:16;;;;;;;1.63;1.10;;;-1.50;99.90;;;;;;5050849;28;20222;-74
2022/03/05 03:30:41;;;;;;;0.67;0.67;;;-1.40;99.90;;;;;;5050871;28;20220;-74
2022/03/05 03:33:07;;;;;;;2.23;1.00;;;-1.40;99.90;;;;;;5050344;28;20214;-73
2022/03/05 03:35:33;;;;;;;0.97;0.97;;;-1.50;99.90;;;;;;5051079;28;20180;-73
2022/03/05 03:37:58;;;;;;;1.60;1.60;;;-1.50;99.90;;;;;;5050985;28;20189;-73
2022/03/05 03:40:24;;;;;;;3.00;2.77;;;-1.40;99.90;;;;;;5050836;28;20206;-74
2022/03/05 03:42:51;;;;;;;2.07;1.60;;;-1.40;99.90;;;;;;5049281;28;20196;-73
2022/03/05 03:45:17;;;;;;;6.53;3.03;;;-1.40;99.90;;;;;;5051037;28;20190;-72
2022/03/05 03:47:46;;;;;;;4.30;3.13;;;-1.40;99.90;;;;;;5050617;28;20231;-73
2022/03/05 03:50:13;;;;;;;2.30;2.20;;;-1.40;99.90;;;;;;5053185;28;20235;-71
2022/03/05 03:52:39;;;;;;;4.07;3.90;;;-1.40;99.90;;;;;;5054127;28;20185;-73
2022/03/05 03:55:06;;;;;;;2.07;1.43;;;-1.40;99.90;;;;;;5054296;28;20176;-73
2022/03/05 03:57:32;;;;;;;3.40;2.37;;;-1.40;99.90;;;;;;5054089;28;20683;-73
2022/03/05 03:59:58;;;;;;;1.10;1.10;;;-1.50;99.90;;;;;;5041542;28;20207;-73
2022/03/05 04:02:23;;;;;;;6.77;6.10;;;-1.50;99.90;;;;;;5053163;28;20180;-73
2022/03/05 04:04:50;;;;;;;0.57;0.57;;;-1.50;99.90;;;;;;5054243;28;20179;-73
2022/03/05 04:10:00;;;;;;;0.47;0.47;;;-1.50;99.90;;;;;;5054142;28;20246;-73
2022/03/05 04:12:25;;;;;;;0.23;0.23;;;-1.50;99.90;;;;;;5052384;28;20181;-73
2022/03/05 04:14:51;;;;;;;0.97;0.97;;;-1.50;99.90;;;;;;5053691;28;20184;-74
2022/03/05 04:17:17;;;;;;;0.97;0.97;;;-1.60;99.90;;;;;;5054410;28;20175;-73
2022/03/05 04:19:43;;;;;;;1.30;1.30;;;-1.60;99.90;;;;;;5055482;28;20195;-73
2022/03/05 04:22:09;;;;;;;3.20;3.03;;;-1.60;99.90;;;;;;5054217;28;20188;-73
2022/03/05 04:24:35;;;;;;;14.53;3.40;;;-1.60;99.90;;;;;;5053785;28;20203;-73
2022/03/05 04:27:01;;;;;;;3.00;2.77;;;-1.60;99.90;;;;;;5053670;28;20231;-73
2022/03/05 04:29:26;;;;;;;1.90;1.80;;;-1.60;99.90;;;;;;5050883;28;20180;-74
2022/03/05 04:31:52;;;;;;;7.63;2.20;;;-1.60;99.90;;;;;;5041175;28;20206;-74
2022/03/05 04:34:18;;;;;;;4.57;4.27;;;-1.60;99.90;;;;;;5053339;28;20294;-73
2022/03/05 04:36:44;;;;;;;2.13;2.10;;;-1.60;99.90;;;;;;5052132;28;20294;-73
2022/03/05 04:39:10;;;;;;;2.03;1.93;;;-1.60;99.90;;;;;;5053307;28;20706;-73
2022/03/05 04:41:36;;;;;;;1.27;1.27;;;-1.60;99.90;;;;;;5052935;28;20265;-73
2022/03/05 04:44:02;;;;;;;3.47;3.27;;;-1.60;99.90;;;;;;5053170;28;20236;-73
2022/03/05 04:46:28;;;;;;;3.67;3.40;;;-1.50;99.90;;;;;;5053277;28;20180;-73
2022/03/05 04:48:53;;;;;;;0.10;0.10;;;-1.60;99.90;;;;;;5053121;28;20173;-73
2022/03/05 04:51:19;;;;;;;8.03;2.63;;;-1.60;99.90;;;;;;5052668;28;20208;-73
2022/03/05 04:53:45;;;;;;;4.27;3.93;;;-1.60;99.90;;;;;;5052867;28;20264;-73
2022/03/05 04:56:10;;;;;;;0.97;0.63;;;-1.60;99.90;;;;;;5053019;28;20627;-73
2022/03/05 04:58:36;;;;;;;2.17;2.07;;;-1.60;99.90;;;;;;5051251;28;20181;-74
2022/03/05 05:01:02;;;;;;;4.60;3.00;;;-1.70;99.90;;;;;;5041060;28;20279;-74
2022/03/05 05:03:28;;;;;;;0.23;0.23;;;-1.70;99.90;;;;;;5052370;28;20191;-73
2022/03/05 05:05:53;;;;;;;2.77;2.67;;;-1.70;99.90;;;;;;5052350;28;20187;-73
2022/03/05 05:08:19;;;;;;;2.40;2.30;;;-1.70;99.90;;;;;;5047509;28;20715;-74
2022/03/05 05:10:44;;;;;;;3.03;2.73;;;-1.70;99.90;;;;;;5044790;28;20200;-73
2022/03/05 05:13:10;;;;;;;2.33;2.23;;;-1.70;99.90;;;;;;5047110;28;20333;-73
2022/03/05 05:15:35;;;;;;;0.97;0.97;;;-1.80;99.90;;;;;;5052610;28;20196;-73
2022/03/05 05:18:01;;;;;;;0.40;0.40;;;-1.70;99.90;;;;;;5052627;28;20187;-74
2022/03/05 05:20:29;;;;;;;0.83;0.83;;;-1.70;99.90;;;;;;5052576;28;20238;-73
2022/03/05 05:22:54;;;;;;;3.30;3.10;;;-1.70;99.90;;;;;;5052277;28;20180;-73
2022/03/05 05:25:20;;;;;;;1.03;1.03;;;-1.70;99.90;;;;;;5051314;28;20184;-73
2022/03/05 05:27:45;;;;;;;0.40;0.40;;;-1.70;99.90;;;;;;5052117;28;20194;-74
2022/03/05 05:30:11;;;;;;;2.73;2.53;;;-1.70;99.90;;;;;;5052267;28;20297;-72
2022/03/05 05:32:36;;;;;;;2.53;2.43;;;-1.70;99.90;;;;;;5052265;28;20177;-73
2022/03/05 05:35:03;;;;;;;0.50;0.50;;;-1.70;99.90;;;;;;5054503;28;20203;-74
2022/03/05 05:37:28;;;;;;;2.13;2.03;;;-1.60;99.90;;;;;;5052099;28;20177;-73
2022/03/05 05:39:54;;;;;;;1.87;1.77;;;-1.60;99.90;;;;;;5050898;28;20211;-73
2022/03/05 05:42:19;;;;;;;32.60;4.80;;;-1.60;99.90;;;;;;5051720;28;20819;-73
2022/03/05 05:44:45;;;;;;;1.90;1.87;;;-1.60;99.90;;;;;;5052286;28;20191;-74
2022/03/05 05:47:10;;;;;;;2.50;2.40;;;-1.60;99.90;;;;;;5051860;28;20182;-73
2022/03/05 05:49:36;;;;;;;0.73;0.73;;;-1.50;99.90;;;;;;5051989;28;20249;-73
2022/03/05 05:52:03;;;;;;;3.20;2.70;;;-1.50;99.90;;;;;;5050275;28;20327;-73
2022/03/05 05:54:28;;;;;;;0.83;0.83;;;-1.50;99.90;;;;;;5050578;28;20215;-73
2022/03/05 05:56:54;;;;;;;2.30;2.20;;;-1.50;99.90;;;;;;5052673;28;20181;-73
2022/03/05 05:59:20;;;;;;;4.37;2.83;;;-1.50;99.90;;;;;;5044772;28;20181;-75
2022/03/05 06:01:45;;;;;;;2.43;1.67;;;-1.50;99.90;;;;;;5045698;28;20663;-73
2022/03/05 06:04:11;;;;;;;8.60;4.67;;;-1.50;99.90;;;;;;5051797;28;20603;-73
2022/03/05 06:06:36;;;;;;;4.60;4.03;;;-1.60;99.90;;;;;;5045238;28;20180;-75
2022/03/05 06:09:02;;;;;;;1.50;1.50;;;-1.50;99.90;;;;;;5050738;28;20619;-74
2022/03/05 06:11:29;;;;;;;1.90;0.60;;;-1.50;99.90;;;;;;5049691;28;20556;-74
2022/03/05 06:13:56;;;;;;;4.07;2.90;;;-1.60;99.90;;;;;;5051827;28;20606;-73
2022/03/05 06:16:21;;;;;;;0.20;0.20;;;-1.60;99.90;;;;;;5051535;28;20184;-73
2022/03/05 06:18:47;;;;;;;0.10;0.10;;;-1.60;99.90;;;;;;5050286;28;20563;-74
2022/03/05 06:21:13;;;;;;;2.33;2.23;;;-1.60;99.90;;;;;;5051450;28;20203;-73
2022/03/05 06:23:39;;;;;;;5.30;2.93;;;-1.60;99.90;;;;;;5051440;28;20672;-74
2022/03/05 06:26:05;;;;;;;0.60;0.60;;;-1.60;99.90;;;;;;5051261;28;20189;-74
2022/03/05 06:28:31;;;;;;;2.13;0.97;;;-1.50;99.90;;;;;;5051348;28;20233;-74
2022/03/05 06:30:56;;;;;;;4.53;4.27;;;-1.50;99.90;;;;;;5051175;28;20308;-72
2022/03/05 06:33:22;;;;;;;4.33;2.37;;;-1.60;99.90;;;;;;5051085;28;20197;-75
2022/03/05 06:35:48;;;;;;;4.07;3.53;;;-1.60;99.90;;;;;;5051569;28;20183;-77
2022/03/05 06:38:13;;;;;;;2.27;2.17;;;-1.50;99.90;;;;;;5052548;28;20208;-75
2022/03/05 06:40:39;;;;;;;3.07;2.73;;;-1.50;99.90;;;;;;5051069;28;20224;-75
2022/03/05 06:43:04;;;;;;;1.63;1.57;;;-1.50;99.90;;;;;;5051499;28;20238;-76
2022/03/05 06:45:30;;;;;;;1.40;1.40;;;-1.40;99.90;;;;;;5051585;28;20212;-75
2022/03/05 06:47:56;;;;;;;4.40;4.10;;;-1.30;99.90;;;;;;5051405;28;20198;-76
2022/03/05 06:50:21;;;;;;;1.97;1.87;;;-1.10;99.90;;;;;;5051697;28;20209;-77
2022/03/05 06:52:47;;;;;;;4.17;3.97;;;-1.10;99.90;;;;;;5050719;28;20291;-77
2022/03/05 06:55:14;;;;;;;2.47;2.37;;;-1.10;99.90;;;;;;5050642;28;20180;-76
2022/03/05 06:57:44;;;;;;;2.77;2.57;;;-1.00;99.90;;;;;;5051728;28;20178;-77
2022/03/05 07:00:12;;;;;;;1.37;1.27;;;-1.00;99.90;;;;;;5034929;28;20201;-76
2022/03/05 07:02:37;;;;;;;4.87;4.50;;;-0.90;99.90;;;;;;5037323;28;20189;-76
2022/03/05 07:05:03;;;;;;;1.80;1.70;;;-0.80;99.90;;;;;;5051437;28;20668;-76
2022/03/05 07:07:29;;;;;;;0.10;0.10;;;-0.80;99.90;;;;;;5036017;28;20714;-76
2022/03/05 07:09:55;;;;;;;1.70;1.17;;;-0.80;99.90;;;;;;5031731;28;20193;-76
2022/03/05 07:12:20;;;;;;;3.70;3.40;;;-0.70;99.90;;;;;;5051361;28;20201;-75
2022/03/05 07:14:48;;;;;;;1.90;1.87;;;-0.70;99.90;;;;;;5049795;28;20232;-74
2022/03/05 07:17:15;;;;;;;10.10;3.60;;;-0.60;99.90;;;;;;5050092;28;20181;-75
2022/03/05 07:19:41;;;;;;;4.90;2.93;;;-0.50;99.90;;;;;;5050965;28;20209;-75
2022/03/05 07:22:07;;;;;;;4.33;4.03;;;-0.50;99.90;;;;;;5051412;28;20181;-74
2022/03/05 07:24:32;;;;;;;2.53;2.33;;;-0.40;99.90;;;;;;5055065;28;20213;-75
2022/03/05 07:26:58;;;;;;;15.97;4.93;;;-0.30;99.90;;;;;;5054908;28;20195;-75
2022/03/05 07:29:23;;;;;;;2.43;2.33;;;-0.20;99.90;;;;;;5053602;28;20212;-75
2022/03/05 07:31:49;;;;;;;11.87;6.93;;;0.00;99.90;;;;;;5055816;28;20197;-75
2022/03/05 07:34:15;;;;;;;4.00;3.70;;;0.10;99.90;;;;;;5054975;28;20205;-75
2022/03/05 07:36:41;;;;;;;1.83;1.40;;;0.20;99.90;;;;;;5055208;28;20207;-74
2022/03/05 07:39:07;;;;;;;10.90;5.83;;;0.40;99.90;;;;;;5063146;28;20185;-75
2022/03/05 07:41:34;;;;;;;9.93;6.77;;;0.40;99.90;;;;;;5065269;28;20704;-75
2022/03/05 07:44:00;;;;;;;5.10;4.60;;;0.60;99.90;;;;;;5058835;28;20610;-74
2022/03/05 07:46:26;;;;;;;6.17;4.23;;;0.70;99.90;;;;;;5034851;28;20212;-75
2022/03/05 07:48:51;;;;;;;0.20;0.20;;;0.80;99.90;;;;;;5035564;28;20660;-76
2022/03/05 07:51:17;;;;;;;2.77;1.93;;;0.80;99.90;;;;;;5042464;28;20201;-73
2022/03/05 07:53:43;;;;;;;3.77;3.47;;;1.00;99.90;;;;;;5055017;28;20213;-75
2022/03/05 07:56:10;;;;;;;4.30;4.10;;;1.00;99.90;;;;;;5053375;28;20660;-75
2022/03/05 07:58:35;;;;;;;20.57;8.87;;;1.10;99.90;;;;;;5052174;28;20235;-74
2022/03/05 08:01:01;;;;;;;2.30;2.20;;;1.20;99.90;;;;;;5034490;28;20202;-75
2022/03/05 08:03:26;;;;;;;5.50;2.50;;;1.30;99.90;;;;;;5035192;28;20210;-74
2022/03/05 08:05:53;;;;;;;22.90;2.57;;;1.40;99.90;;;;;;5039047;28;20193;-74
2022/03/05 08:08:19;;;;;;;15.70;5.30;;;1.50;99.90;;;;;;5048512;28;20196;-75
2022/03/05 08:10:44;;;;;;;5.20;3.60;;;1.60;99.90;;;;;;5054123;28;20279;-75
2022/03/05 08:13:10;;;;;;;6.90;1.43;;;1.60;99.90;;;;;;5052374;28;20296;-75
2022/03/05 08:15:35;;;;;;;12.60;2.53;;;1.70;99.90;;;;;;5053966;28;20584;-75
2022/03/05 08:18:01;;;;;;;2.37;2.23;;;1.80;99.90;;;;;;5052811;28;20702;-75
2022/03/05 08:20:30;;;;;;;8.50;4.47;;;1.90;99.90;;;;;;5053726;28;20198;-74
2022/03/05 08:22:56;;;;;;;12.57;4.30;;;1.90;99.90;;;;;;5054009;28;20653;-75
2022/03/05 08:25:22;;;;;;;1.00;0.90;;;2.10;99.90;;;;;;5054121;28;20263;-75
2022/03/05 08:27:48;;;;;;;8.33;7.20;;;2.10;99.90;;;;;;5052434;28;20271;-75
2022/03/05 08:30:15;;;;;;;4.97;4.20;;;2.30;99.90;;;;;;5041822;28;20217;-75
2022/03/05 08:32:40;;;;;;;2.87;1.93;;;2.30;99.90;;;;;;5053606;28;20747;-76
2022/03/05 08:35:08;;;;;;;4.27;3.93;;;2.50;99.90;;;;;;5053315;28;20261;-75
2022/03/05 08:37:34;;;;;;;4.33;3.93;;;2.60;99.90;;;;;;5053560;28;20174;-75
2022/03/05 08:40:00;;;;;;;11.80;5.00;;;2.70;99.90;;;;;;5053366;28;20204;-75
2022/03/05 08:42:26;;;;;;;9.27;4.57;;;2.70;99.90;;;;;;5053161;28;20177;-75
2022/03/05 08:44:51;;;;;;;9.23;3.40;;;2.80;99.90;;;;;;5053406;28;20185;-75
2022/03/05 08:47:17;;;;;;;11.23;3.80;;;2.90;99.90;;;;;;5051971;28;20186;-76
2022/03/05 08:49:43;;;;;;;5.30;1.73;;;2.90;99.90;;;;;;5052504;28;20684;-75
2022/03/05 08:52:08;;;;;;;3.87;3.60;;;3.00;99.90;;;;;;5052867;28;20187;-72
2022/03/05 08:54:35;;;;;;;4.13;3.93;;;3.00;99.90;;;;;;5053137;28;20674;-75
2022/03/05 08:57:01;;;;;;;2.50;2.37;;;3.10;99.90;;;;;;5052096;28;20179;-75
2022/03/05 08:59:26;;;;;;;1.50;1.40;;;3.20;99.90;;;;;;5043996;28;20183;-75
2022/03/05 09:01:52;;;;;;;3.30;3.10;;;3.20;99.90;;;;;;5046895;28;20176;-75
2022/03/05 09:04:18;;;;;;;9.53;6.47;;;3.50;99.90;;;;;;5053220;28;20195;-75
2022/03/05 09:06:44;;;;;;;9.70;4.33;;;3.70;99.90;;;;;;5047595;28;20195;-75
2022/03/05 09:09:10;;;;;;;1.00;1.00;;;3.70;99.90;;;;;;5052369;28;20180;-75
2022/03/05 09:11:37;;;;;;;4.67;4.27;;;3.80;99.90;;;;;;5052599;28;20258;-75
2022/03/05 09:14:04;;;;;;;3.07;2.87;;;4.00;99.90;;;;;;5052015;28;20217;-75
2022/03/05 09:16:30;;;;;;;4.33;4.03;;;4.10;99.90;;;;;;5039891;28;20170;-74
2022/03/05 09:18:55;;;;;;;4.13;3.77;;;4.10;99.90;;;;;;5051740;28;20204;-74
2022/03/05 09:21:21;;;;;;;12.47;5.57;;;4.20;99.90;;;;;;5051173;28;20208;-74
2022/03/05 09:23:47;;;;;;;9.73;4.10;;;4.30;99.90;;;;;;5050542;28;20208;-74
2022/03/05 09:26:14;;;;;;;2.23;2.13;;;4.50;99.90;;;;;;5044122;28;20283;-75
2022/03/05 09:28:40;;;;;;;6.93;3.37;;;4.50;99.90;;;;;;5046675;28;20181;-75
2022/03/05 09:31:05;;;;;;;3.37;3.10;;;4.60;99.90;;;;;;5037547;28;20221;-74
2022/03/05 09:33:31;;;;;;;16.57;4.20;;;4.70;99.90;;;;;;5044275;28;20204;-74
2022/03/05 09:35:57;;;;;;;12.87;4.80;;;4.80;99.90;;;;;;5052949;28;20174;-74
2022/03/05 09:38:22;;;;;;;4.83;4.03;;;4.90;99.90;;;;;;5040335;28;20170;-74
2022/03/05 09:40:48;;;;;;;3.80;3.60;;;5.10;99.90;;;;;;5045221;28;20763;-75
2022/03/05 09:43:15;;;;;;;1.77;1.67;;;5.10;99.90;;;;;;5041140;28;20212;-74
2022/03/05 09:45:44;;;;;;;8.33;5.27;;;5.10;99.90;;;;;;5052335;28;20181;-75
2022/03/05 09:48:11;;;;;;;3.80;2.23;;;5.20;99.90;;;;;;5056012;28;20177;-75
2022/03/05 09:50:37;;;;;;;6.23;2.30;;;5.40;99.90;;;;;;5055177;28;20676;-75
2022/03/05 09:53:03;;;;;;;2.47;2.37;;;5.30;99.90;;;;;;5054193;28;20199;-75
2022/03/05 09:55:30;;;;;;;4.63;4.17;;;5.30;99.90;;;;;;5055313;28;20185;-75
2022/03/05 09:57:55;;;;;;;2.30;2.10;;;5.50;99.90;;;;;;5052250;28;20633;-76
2022/03/05 10:00:21;;;;;;;2.37;2.13;;;5.60;99.90;;;;;;5039484;28;20221;-76
2022/03/05 10:02:47;;;;;;;2.57;2.37;;;5.50;99.90;;;;;;5052755;28;20189;-74
2022/03/05 10:05:19;;;;;;;1.00;1.00;;;5.60;99.90;;;;;;5053089;28;20640;-75
2022/03/05 10:08:07;;;;;;;9.90;7.80;;;5.60;99.90;;;;;;5048119;28;20311;-75
2022/03/05 10:10:49;;;;;;;7.20;4.60;;;5.90;99.90;;;;;;5054834;28;20680;-75
2022/03/05 10:13:15;;;;;;;3.43;3.23;;;6.00;99.90;;;;;;5054217;28;20579;-75
2022/03/05 10:15:41;;;;;;;4.20;3.93;;;6.30;99.90;;;;;;5053558;28;20187;-76
2022/03/05 10:18:07;;;;;;;8.90;3.93;;;6.30;99.90;;;;;;5050864;28;20201;-76
2022/03/05 10:20:41;;;;;;;2.67;2.57;;;6.40;99.90;;;;;;5040780;28;20300;-76
2022/03/05 10:23:09;;;;;;;2.70;2.43;;;6.40;99.90;;;;;;5053597;28;20209;-75
2022/03/05 10:25:42;;;;;;;5.53;2.10;;;6.40;99.90;;;;;;5052117;28;20208;-75
2022/03/05 10:28:13;;;;;;;3.83;3.53;;;6.60;99.90;;;;;;5053641;28;20267;-75
2022/03/05 10:30:48;;;;;;;4.33;2.30;;;6.80;99.90;;;;;;5040324;28;20224;-75
2022/03/05 10:33:27;;;;;;;9.10;5.20;;;6.90;99.90;;;;;;5053391;28;20230;-75
2022/03/05 10:35:54;;;;;;;6.87;4.47;;;7.10;99.90;;;;;;5038732;28;20188;-76
2022/03/05 10:38:19;;;;;;;4.67;4.27;;;7.40;99.90;;;;;;5053906;28;20193;-75
2022/03/05 10:40:55;;;;;;;7.03;3.50;;;7.50;99.90;;;;;;5051261;28;20189;-75
2022/03/05 10:43:22;;;;;;;6.23;3.40;;;7.70;99.90;;;;;;5042440;28;20220;-75
2022/03/05 10:45:52;;;;;;;8.40;6.87;;;8.10;99.90;;;;;;5053965;28;20179;-76
2022/03/05 10:48:29;;;;;;;3.13;2.93;;;8.00;99.90;;;;;;5050262;28;20656;-76
2022/03/05 10:51:00;;;;;;;2.80;2.43;;;8.50;99.90;;;;;;5050586;28;20201;-76
2022/03/05 10:53:47;;;;;;;10.47;3.93;;;8.60;99.90;;;;;;5050518;28;20233;-77
2022/03/05 10:56:27;;;;;;;3.50;2.13;;;8.60;99.90;;;;;;5051850;28;20193;-76
2022/03/05 10:59:08;;;;;;;3.67;2.33;;;8.50;99.90;;;;;;5051341;28;20538;-76
2022/03/05 11:01:38;;;;;;;3.20;2.83;;;8.60;99.90;;;;;;5047572;28;20207;-76
2022/03/05 11:04:05;;;;;;;2.90;2.50;;;8.40;99.90;;;;;;5055301;28;20664;-76
2022/03/05 11:06:34;;;;;;;5.77;5.37;;;8.60;99.90;;;;;;5048219;28;20185;-76
2022/03/05 11:09:00;;;;;;;3.33;1.47;;;9.00;99.90;;;;;;5046451;28;20187;-75
2022/03/05 11:11:27;;;;;;;4.83;2.63;;;9.10;99.90;;;;;;5053659;28;20632;-76
2022/03/05 11:13:53;;;;;;;2.07;1.93;;;9.20;99.90;;;;;;5054915;28;20201;-75
2022/03/05 11:16:19;;;;;;;2.30;2.20;;;9.40;99.90;;;;;;5054823;28;20177;-76
2022/03/05 11:18:45;;;;;;;2.03;1.70;;;9.60;99.90;;;;;;5041840;28;20235;-76
2022/03/05 11:21:11;;;;;;;2.23;2.10;;;9.80;99.90;;;;;;5055253;28;20201;-76
2022/03/05 11:23:38;;;;;;;2.93;2.40;;;9.90;99.90;;;;;;5055213;28;20185;-76
2022/03/05 11:26:07;;;;;;;5.97;1.77;;;10.20;99.90;;;;;;5053566;28;20189;-77
2022/03/05 11:28:37;;;;;;;9.90;3.10;;;10.20;99.90;;;;;;5055660;28;20260;-76
2022/03/05 11:31:23;;;;;;;5.07;3.57;;;10.30;99.90;;;;;;5054027;28;20267;-76
2022/03/05 11:33:50;;;;;;;2.77;2.57;;;10.90;99.90;;;;;;5055833;28;20209;-76
2022/03/05 11:36:24;;;;;;;3.33;1.83;;;11.00;99.90;;;;;;5055711;28;20530;-76
2022/03/05 11:39:10;;;;;;;7.90;2.77;;;11.10;99.90;;;;;;5055490;28;20172;-75
2022/03/05 11:41:59;;;;;;;3.33;3.13;;;11.30;99.90;;;;;;5053460;28;20207;-75
2022/03/05 11:44:28;;;;;;;3.13;2.23;;;11.70;99.90;;;;;;5042145;28;20177;-76
2022/03/05 11:47:18;;;;;;;16.00;6.80;;;11.90;99.90;;;;;;5053073;28;20533;-76
2022/03/05 11:49:56;;;;;;;5.10;2.43;;;12.10;99.90;;;;;;5030970;28;20197;-76
2022/03/05 11:52:22;;;;;;;2.00;1.90;;;12.10;99.90;;;;;;5047916;28;20177;-76
2022/03/05 11:55:18;;;;;;;7.93;2.57;;;11.90;99.90;;;;;;5054238;28;20692;-76
2022/03/05 11:57:52;;;;;;;4.77;3.27;;;12.20;99.90;;;;;;5054392;28;20269;-76
2022/03/05 12:00:26;;;;;;;2.57;2.37;;;12.60;99.90;;;;;;5038086;28;20194;-76
2022/03/05 12:02:54;;;;;;;1.33;1.30;;;12.50;99.90;;;;;;5053950;28;20172;-76
2022/03/05 12:05:38;;;;;;;2.37;2.17;;;12.20;99.90;;;;;;5053979;28;20216;-76
2022/03/05 12:08:10;;;;;;;2.63;2.53;;;12.80;99.90;;;;;;5037035;28;20683;-75
2022/03/05 12:10:38;;;;;;;2.73;2.53;;;12.70;99.90;;;;;;5026984;28;20193;-75
2022/03/05 12:13:10;;;;;;;3.70;3.33;;;13.20;99.90;;;;;;5052044;28;20213;-75
2022/03/05 12:15:44;;;;;;;4.23;3.57;;;13.80;99.60;;;;;;5054238;28;20204;-75
2022/03/05 12:18:14;;;;;;;8.20;3.37;;;14.10;96.20;;;;;;5053777;28;20205;-76
2022/03/05 12:20:44;;;;;;;2.50;2.40;;;13.70;94.90;;;;;;5053905;28;20276;-76
2022/03/05 12:23:18;;;;;;;9.30;3.17;;;13.80;97.10;;;;;;5052220;28;20192;-75
2022/03/05 12:25:46;;;;;;;4.87;3.93;;;13.30;97.20;;;;;;5052962;28;20601;-75
2022/03/05 12:28:14;;;;;;;9.27;3.40;;;13.50;90.90;;;;;;5053573;28;20177;-75
2022/03/05 12:30:40;;;;;;;6.17;2.17;;;13.60;90.70;;;;;;5053425;28;20261;-75
2022/03/05 12:33:09;;;;;;;3.77;3.13;;;13.40;90.60;;;;;;5053444;28;20208;-76
2022/03/05 12:35:35;;;;;;;7.50;3.53;;;13.40;91.30;;;;;;5052360;28;20247;-76
2022/03/05 12:38:01;;;;;;;7.17;4.97;;;14.20;91.90;;;;;;5053243;28;20687;-76
2022/03/05 12:40:28;;;;;;;1.93;1.83;;;14.70;90.00;;;;;;5053544;28;20666;-76
2022/03/05 12:42:55;;;;;;;1.60;1.50;;;14.90;86.80;;;;;;5053122;28;20216;-75
2022/03/05 12:45:25;;;;;;;3.57;3.30;;;14.40;84.50;;;;;;5053746;28;20188;-75
2022/03/05 12:47:55;;;;;;;9.80;2.43;;;15.20;79.00;;;;;;5053272;28;20187;-75
2022/03/05 12:50:58;;;;;;;4.37;2.57;;;14.70;76.60;;;;;;5053274;28;20228;-75
2022/03/05 12:53:25;;;;;;;2.03;1.93;;;15.20;78.70;;;;;;4992087;28;20203;-76